createdAt,value
2019-04-01T10:42:28.130Z,11.17
2019-04-01T10:45:03.671Z,9.87
2019-04-01T10:47:39.529Z,10.83
2019-04-01T10:50:15.057Z,10.23
2019-04-01T10:52:49.941Z,9.50
2019-04-01T10:55:28.004Z,10.70
2019-04-01T10:58:02.921Z,10.77
2019-04-01T11:00:39.671Z,10.47
2019-04-01T11:03:14.638Z,11.47
2019-04-01T11:05:48.720Z,10.10
2019-04-01T11:08:25.123Z,11.10
2019-04-01T11:11:04.789Z,10.60
2019-04-01T11:13:41.010Z,11.27
2019-04-01T11:16:16.924Z,10.90
2019-04-01T11:18:51.568Z,10.87
2019-04-01T11:21:26.474Z,10.60
2019-04-01T11:24:01.951Z,12.00
2019-04-01T11:26:38.218Z,10.53
2019-04-01T11:29:13.335Z,10.50
2019-04-01T11:31:50.420Z,11.47
2019-04-01T11:34:26.703Z,11.40
2019-04-01T11:37:04.766Z,10.70
2019-04-01T11:39:40.310Z,11.03
2019-04-01T11:42:15.967Z,11.77
2019-04-01T11:44:52.536Z,12.27
2019-04-01T11:47:27.069Z,11.30
2019-04-01T11:50:03.510Z,12.53
2019-04-01T11:52:39.650Z,12.07
2019-04-01T11:55:15.627Z,11.77
2019-04-01T11:57:50.630Z,10.17
2019-04-01T12:00:26.988Z,10.70
2019-04-01T12:03:03.455Z,13.60
2019-04-01T12:05:38.620Z,9.67
2019-04-01T12:08:12.759Z,9.47
2019-04-01T12:10:48.444Z,10.07
2019-04-01T12:13:23.455Z,10.17
2019-04-01T12:15:58.958Z,10.33
2019-04-01T12:18:33.325Z,9.70
2019-04-01T12:21:10.890Z,8.97
2019-04-01T12:23:43.814Z,9.90
2019-04-01T12:26:17.927Z,9.10
2019-04-01T12:28:53.070Z,8.80
2019-04-01T12:31:29.801Z,9.00
2019-04-01T12:34:04.202Z,9.03
2019-04-01T12:36:38.748Z,8.50
2019-04-01T12:39:12.714Z,9.57
2019-04-01T12:41:58.411Z,8.93
2019-04-01T12:44:30.840Z,9.70
2019-04-01T12:47:09.015Z,9.17
2019-04-01T12:49:44.799Z,9.10
2019-04-01T12:52:23.764Z,8.90
2019-04-01T12:55:00.888Z,9.27
2019-04-01T12:57:36.279Z,9.60
2019-04-01T13:00:13.186Z,9.07
2019-04-01T13:02:49.416Z,13.60
2019-04-01T13:05:25.336Z,8.80
2019-04-01T13:07:59.903Z,8.90
2019-04-01T13:10:36.599Z,9.33
2019-04-01T13:13:12.984Z,10.77
2019-04-01T13:15:48.046Z,10.30
2019-04-01T13:18:22.627Z,10.40
2019-04-01T13:20:56.611Z,9.73
2019-04-01T13:23:31.727Z,9.20
2019-04-01T13:26:07.301Z,9.67
2019-04-01T13:28:42.628Z,10.60
2019-04-01T13:31:19.137Z,10.90
2019-04-01T13:33:53.925Z,9.50
2019-04-01T13:36:33.342Z,10.57
2019-04-01T13:39:08.821Z,9.90
2019-04-01T13:41:45.252Z,9.57
2019-04-01T13:44:35.712Z,11.20
2019-04-01T13:46:57.949Z,9.43
2019-04-01T13:49:34.505Z,10.97
2019-04-01T13:52:14.027Z,10.17
2019-04-01T13:54:49.159Z,10.03
2019-04-01T13:57:22.460Z,10.50
2019-04-01T13:59:57.633Z,10.53
2019-04-01T14:02:31.515Z,10.43
2019-04-01T14:05:07.659Z,10.43
2019-04-01T14:07:41.509Z,9.83
2019-04-01T14:10:15.927Z,10.30
2019-04-01T14:12:50.265Z,9.87
2019-04-01T14:15:25.114Z,9.73
2019-04-01T14:17:59.515Z,9.63
2019-04-01T14:20:34.511Z,9.90
2019-04-01T14:23:09.275Z,10.23
2019-04-01T14:25:43.188Z,9.90
2019-04-01T14:28:18.659Z,10.67
2019-04-01T14:30:53.159Z,11.70
2019-04-01T14:33:27.257Z,9.93
2019-04-01T14:36:04.661Z,10.37
2019-04-01T14:38:40.406Z,9.83
2019-04-01T14:41:14.992Z,9.53
2019-04-01T14:43:49.431Z,9.50
2019-04-01T14:46:24.230Z,9.87
2019-04-01T14:49:00.307Z,9.00
2019-04-01T14:51:32.604Z,9.40
2019-04-01T14:54:07.585Z,10.33
2019-04-01T14:56:41.708Z,10.37
2019-04-01T14:59:18.400Z,9.27
2019-04-01T15:01:53.412Z,8.50
2019-04-01T15:04:31.812Z,9.50
2019-04-01T15:07:06.997Z,10.57
2019-04-01T15:09:41.308Z,10.10
2019-04-01T15:12:15.588Z,10.00
2019-04-01T15:14:49.523Z,10.20
2019-04-01T15:17:25.402Z,9.83
2019-04-01T15:19:59.868Z,9.70
2019-04-01T15:22:35.686Z,9.77
2019-04-01T15:25:11.680Z,8.50
2019-04-01T15:27:45.948Z,8.97
2019-04-01T15:30:21.518Z,8.97
2019-04-01T15:32:55.934Z,9.47
2019-04-01T15:35:30.578Z,8.87
2019-04-01T15:38:05.302Z,8.90
2019-04-01T15:40:42.383Z,8.27
2019-04-01T15:43:16.349Z,8.13
2019-04-01T15:45:49.762Z,9.50
2019-04-01T15:48:23.864Z,9.27
2019-04-01T15:50:58.630Z,8.23
2019-04-01T15:53:34.731Z,8.80
2019-04-01T15:56:15.993Z,8.47
2019-04-01T15:58:51.486Z,8.80
2019-04-01T16:01:30.716Z,8.57
2019-04-01T16:04:08.505Z,9.10
2019-04-01T16:06:43.431Z,9.40
2019-04-01T16:09:18.384Z,8.80
2019-04-01T16:11:55.409Z,8.63
2019-04-01T16:14:31.299Z,9.63
2019-04-01T16:17:08.147Z,9.27
2019-04-01T16:19:42.585Z,11.10
2019-04-01T16:22:17.011Z,12.97
2019-04-01T16:24:51.355Z,9.57
2019-04-01T16:27:37.040Z,10.90
2019-04-01T16:30:13.055Z,9.40
2019-04-01T16:32:49.711Z,9.83
2019-04-01T16:35:23.896Z,10.03
2019-04-01T16:37:59.487Z,9.87
2019-04-01T16:40:34.655Z,10.13
2019-04-01T16:43:08.704Z,14.97
2019-04-01T16:45:44.323Z,10.60
2019-04-01T16:48:18.018Z,15.20
2019-04-01T16:50:53.594Z,10.07
2019-04-01T16:53:27.682Z,10.27
2019-04-01T16:56:03.038Z,10.20
2019-04-01T16:58:38.012Z,10.10
2019-04-01T17:01:12.707Z,12.17
2019-04-01T17:03:46.734Z,10.40
2019-04-01T17:06:21.600Z,12.30
2019-04-01T17:08:55.358Z,9.63
2019-04-01T17:11:31.016Z,8.70
2019-04-01T17:14:08.780Z,10.47
2019-04-01T17:16:42.695Z,11.13
2019-04-01T17:19:17.229Z,13.00
2019-04-01T17:21:50.275Z,10.73
2019-04-01T17:24:24.352Z,11.00
2019-04-01T17:27:05.168Z,10.80
2019-04-01T17:29:38.912Z,12.90
2019-04-01T17:32:12.841Z,12.03
2019-04-01T17:34:46.724Z,11.43
2019-04-01T17:37:20.328Z,13.23
2019-04-01T17:39:57.068Z,12.13
2019-04-01T17:42:31.203Z,11.33
2019-04-01T17:45:11.358Z,11.13
2019-04-01T17:47:45.681Z,11.17
2019-04-01T17:50:20.614Z,10.00
2019-04-01T17:52:59.297Z,11.13
2019-04-01T17:55:34.614Z,11.57
2019-04-01T17:58:15.499Z,10.80
2019-04-01T18:01:00.169Z,12.17
2019-04-01T18:03:34.781Z,11.63
2019-04-01T18:06:11.272Z,12.60
2019-04-01T18:08:45.312Z,10.80
2019-04-01T18:11:19.216Z,11.80
2019-04-01T18:13:52.994Z,17.07
2019-04-01T18:16:31.532Z,14.27
2019-04-01T18:19:07.830Z,15.40
2019-04-01T18:21:42.964Z,12.87
2019-04-01T18:24:19.034Z,13.47
2019-04-01T18:26:53.758Z,14.90
2019-04-01T18:29:28.029Z,15.63
2019-04-01T18:32:02.742Z,13.63
2019-04-01T18:34:37.732Z,13.93
2019-04-01T18:37:11.453Z,14.93
2019-04-01T18:39:48.447Z,14.27
2019-04-01T18:42:21.632Z,13.23
2019-04-01T18:44:56.759Z,16.93
2019-04-01T18:47:30.152Z,14.63
2019-04-01T18:50:05.161Z,16.47
2019-04-01T18:52:39.662Z,16.30
2019-04-01T18:55:14.090Z,18.50
2019-04-01T18:57:49.074Z,18.13
2019-04-01T19:00:27.723Z,19.70
2019-04-01T19:03:03.655Z,22.37
2019-04-01T19:05:41.618Z,18.20
2019-04-01T19:08:16.385Z,18.43
2019-04-01T19:11:01.689Z,22.07
2019-04-01T19:13:27.966Z,21.90
2019-04-01T19:16:10.428Z,21.33
2019-04-01T19:18:44.752Z,24.00
2019-04-01T19:21:19.267Z,22.30
2019-04-01T19:23:53.871Z,19.57
2019-04-01T19:26:26.210Z,19.23
2019-04-01T19:28:59.970Z,20.20
2019-04-01T19:31:36.420Z,21.57
2019-04-01T19:34:11.466Z,18.73
2019-04-01T19:36:46.585Z,19.17
2019-04-01T19:39:21.006Z,18.63
2019-04-01T19:41:55.661Z,21.27
2019-04-01T19:44:30.294Z,19.73
2019-04-01T19:47:04.902Z,21.23
2019-04-01T19:49:40.008Z,19.43
2019-04-01T19:52:15.014Z,18.40
2019-04-01T19:54:48.704Z,17.80
2019-04-01T19:57:22.853Z,16.87
2019-04-01T19:59:57.527Z,17.43
2019-04-01T20:02:34.235Z,17.70
2019-04-01T20:05:11.552Z,17.00
2019-04-01T20:07:57.665Z,16.50
2019-04-01T20:10:28.564Z,18.87
2019-04-01T20:13:02.208Z,18.43
2019-04-01T20:15:36.096Z,17.07
2019-04-01T20:18:10.631Z,15.27
2019-04-01T20:20:44.728Z,17.00
2019-04-01T20:23:24.720Z,16.80
2019-04-01T20:25:59.382Z,17.60
2019-04-01T20:28:37.558Z,20.27
2019-04-01T20:31:11.431Z,21.13
2019-04-01T20:33:45.877Z,17.70
2019-04-01T20:36:28.556Z,20.90
2019-04-01T20:38:56.430Z,19.83
2019-04-01T20:41:30.521Z,20.87
2019-04-01T20:44:06.221Z,16.23
2019-04-01T20:46:41.589Z,17.07
2019-04-01T20:49:18.934Z,16.13
2019-04-01T20:51:54.157Z,15.13
2019-04-01T20:54:31.643Z,17.13
2019-04-01T20:57:06.286Z,16.07
2019-04-01T20:59:41.085Z,16.70
2019-04-01T21:02:15.712Z,16.40
2019-04-01T21:04:51.167Z,15.63
2019-04-01T21:07:25.322Z,16.30
2019-04-01T21:09:59.722Z,16.50
2019-04-01T21:12:33.592Z,15.50
2019-04-01T21:15:12.699Z,14.17
2019-04-01T21:17:48.933Z,16.47
2019-04-01T21:20:23.988Z,21.53
2019-04-01T21:22:58.142Z,16.33
2019-04-01T21:25:32.571Z,16.43
2019-04-01T21:28:06.493Z,17.13
2019-04-01T21:30:40.516Z,16.77
2019-04-01T21:33:15.070Z,15.60
2019-04-01T21:35:50.335Z,16.10
2019-04-01T21:38:24.816Z,15.53
2019-04-01T21:40:59.542Z,15.03
2019-04-01T21:43:33.533Z,18.50
2019-04-01T21:46:08.107Z,15.33
2019-04-01T21:48:42.253Z,13.80
2019-04-01T21:51:16.480Z,14.17
2019-04-01T21:53:50.249Z,17.00
2019-04-01T21:56:31.703Z,12.90
2019-04-01T21:59:09.944Z,14.30
2019-04-01T22:01:43.972Z,14.27
2019-04-01T22:04:20.237Z,14.40
2019-04-01T22:06:57.560Z,13.83
2019-04-01T22:09:33.905Z,13.73
2019-04-01T22:12:08.069Z,18.40
2019-04-01T22:14:41.831Z,13.53
2019-04-01T22:17:16.151Z,14.63
2019-04-01T22:19:52.139Z,12.50
2019-04-01T22:22:24.443Z,12.17
2019-04-01T22:24:57.002Z,14.33
2019-04-01T22:27:30.992Z,13.67
2019-04-01T22:30:05.424Z,15.00
2019-04-01T22:32:39.737Z,14.97
2019-04-01T22:35:14.081Z,14.53
2019-04-01T22:37:47.804Z,13.67
2019-04-01T22:40:21.755Z,13.40
2019-04-01T22:42:56.191Z,14.53
2019-04-01T22:45:30.252Z,14.37
2019-04-01T22:48:03.875Z,13.93
2019-04-01T22:50:38.272Z,13.67
2019-04-01T22:53:12.471Z,13.37
2019-04-01T22:55:47.942Z,12.50
2019-04-01T22:58:22.851Z,11.97
2019-04-01T23:00:56.807Z,14.23
2019-04-01T23:03:30.550Z,13.20
2019-04-01T23:06:06.064Z,11.90
2019-04-01T23:08:43.876Z,11.43
2019-04-01T23:11:17.759Z,11.73
2019-04-01T23:13:51.637Z,12.03
2019-04-01T23:16:25.298Z,11.43
2019-04-01T23:18:59.268Z,12.10
2019-04-01T23:21:35.058Z,12.67
2019-04-01T23:24:08.366Z,11.83
2019-04-01T23:26:42.832Z,11.83
2019-04-01T23:29:17.028Z,12.23
2019-04-01T23:31:50.523Z,12.83
2019-04-01T23:34:24.663Z,12.30
2019-04-01T23:36:59.170Z,11.93
2019-04-01T23:39:34.284Z,12.17
2019-04-01T23:42:08.040Z,13.77
2019-04-01T23:44:41.653Z,12.73
2019-04-01T23:47:15.258Z,12.60
2019-04-01T23:49:50.188Z,13.80
2019-04-01T23:52:23.636Z,13.37
2019-04-01T23:54:57.936Z,12.33
2019-04-01T23:57:31.542Z,13.70
